Time;durP1;ratioP1;P1;durP2;ratioP2;P2;SDS_P1;SDS_P2;PMS_P1;PMS_P2;Temp;Humidity;BMP_temperature;BMP_pressure;BME280_temperature;BME280_humidity;BME280_pressure;Samples;Min_cycle;Max_cycle;Signal;HPM_P1;HPM_P2
2021/01/02 00:02:02;;;;;;;41.53;26.43;;;5.90;1.00;;;;;;4913679;29;20973;-62
2021/01/02 00:04:51;;;;;;;43.03;27.67;;;5.90;1.00;;;;;;4910859;29;20485;-63
2021/01/02 00:07:25;;;;;;;38.53;26.63;;;5.90;1.00;;;;;;4913292;29;20453;-62
2021/01/02 00:09:56;;;;;;;41.93;27.13;;;5.80;1.00;;;;;;4912249;29;20479;-62
2021/01/02 00:12:36;;;;;;;44.53;27.43;;;5.80;1.00;;;;;;4930369;29;20526;-63
2021/01/02 00:15:07;;;;;;;44.17;30.40;;;5.90;1.00;;;;;;4932037;29;20457;-63
2021/01/02 00:17:55;;;;;;;49.80;27.67;;;5.80;1.00;;;;;;4932890;29;21000;-62
2021/01/02 00:20:30;;;;;;;47.43;28.53;;;5.90;1.00;;;;;;4930229;29;20550;-64
2021/01/02 00:22:58;;;;;;;42.30;25.77;;;5.90;1.00;;;;;;4931697;29;20447;-62
2021/01/02 00:25:29;;;;;;;42.40;27.90;;;5.80;1.00;;;;;;4932243;29;20476;-64
2021/01/02 00:28:21;;;;;;;46.00;28.20;;;5.80;1.00;;;;;;4933132;29;20482;-64
2021/01/02 00:31:01;;;;;;;47.80;26.83;;;5.80;1.00;;;;;;4932237;29;20508;-63
2021/01/02 00:33:42;;;;;;;42.20;26.53;;;5.80;1.00;;;;;;4930510;29;20973;-62
2021/01/02 00:36:21;;;;;;;41.17;26.17;;;5.80;1.00;;;;;;4932288;29;20448;-62
2021/01/02 00:38:47;;;;;;;41.53;26.80;;;5.80;1.00;;;;;;4932257;29;20448;-61
2021/01/02 00:41:13;;;;;;;40.43;26.23;;;5.80;1.00;;;;;;4932193;29;20534;-62
2021/01/02 00:43:38;;;;;;;44.93;26.20;;;5.80;1.00;;;;;;4932260;29;20190;-62
2021/01/02 00:46:04;;;;;;;42.03;27.17;;;5.80;1.00;;;;;;4933034;29;20220;-62
2021/01/02 00:48:32;;;;;;;43.40;27.37;;;5.80;1.00;;;;;;4931918;29;20188;-60
2021/01/02 00:51:01;;;;;;;40.27;25.17;;;5.80;1.00;;;;;;4930882;29;20393;-62
2021/01/02 00:54:01;;;;;;;42.10;26.30;;;5.80;1.00;;;;;;4930761;29;20788;-62
2021/01/02 00:56:34;;;;;;;45.17;28.10;;;5.80;1.00;;;;;;4934483;29;20460;-62
2021/01/02 00:59:43;;;;;;;42.00;26.40;;;5.90;1.00;;;;;;4935136;29;20997;-62
2021/01/02 01:02:32;;;;;;;40.63;26.03;;;5.90;1.00;;;;;;4932609;29;20531;-61
2021/01/02 01:05:00;;;;;;;43.10;26.90;;;5.80;1.00;;;;;;4935981;29;20482;-63
2021/01/02 01:07:27;;;;;;;46.47;26.07;;;5.80;1.00;;;;;;4935117;29;20454;-62
2021/01/02 01:09:56;;;;;;;38.47;25.17;;;5.80;1.00;;;;;;4935735;29;20986;-64
2021/01/02 01:12:27;;;;;;;43.73;26.07;;;5.80;1.00;;;;;;4933351;29;20490;-62
2021/01/02 01:14:54;;;;;;;42.53;26.00;;;5.90;1.00;;;;;;4935480;29;20452;-62
2021/01/02 01:17:24;;;;;;;42.87;27.30;;;5.90;1.00;;;;;;4935987;29;20503;-62
2021/01/02 01:19:54;;;;;;;41.00;26.13;;;5.80;1.00;;;;;;4934604;29;21052;-63
2021/01/02 01:22:26;;;;;;;37.60;25.47;;;5.80;1.00;;;;;;4934405;29;20451;-62
2021/01/02 01:25:06;;;;;;;37.20;23.30;;;5.80;1.00;;;;;;4935879;29;20800;-62
2021/01/02 01:27:54;;;;;;;43.67;23.40;;;5.80;1.00;;;;;;4934883;29;20466;-62
2021/01/02 01:30:23;;;;;;;42.23;25.43;;;5.80;1.00;;;;;;4935167;29;20801;-64
2021/01/02 01:33:00;;;;;;;41.60;26.30;;;5.90;1.00;;;;;;4933631;29;20447;-63
2021/01/02 01:35:27;;;;;;;38.30;24.57;;;5.80;1.00;;;;;;4933978;29;20474;-62
2021/01/02 01:37:55;;;;;;;36.47;23.50;;;5.70;1.00;;;;;;4935577;29;20448;-61
2021/01/02 01:40:30;;;;;;;37.50;25.40;;;5.90;1.00;;;;;;4933843;29;20459;-64
2021/01/02 01:43:06;;;;;;;40.27;25.60;;;5.80;1.00;;;;;;4934548;29;20963;-62
2021/01/02 01:45:38;;;;;;;40.43;24.40;;;5.90;1.00;;;;;;4934989;29;20576;-65
2021/01/02 01:48:04;;;;;;;39.83;25.20;;;;;;;;;;4934861;29;20542;-64
2021/01/02 01:50:55;;;;;;;37.87;25.53;;;5.80;1.00;;;;;;4923863;29;20475;-63
2021/01/02 01:53:56;;;;;;;38.60;25.40;;;5.90;1.00;;;;;;4959830;28;20452;-63
2021/01/02 01:56:34;;;;;;;31.53;22.70;;;5.90;1.00;;;;;;4931105;29;20955;-64
2021/01/02 01:59:21;;;;;;;38.83;25.73;;;6.00;1.00;;;;;;4934376;29;20885;-62
2021/01/02 02:01:55;;;;;;;40.23;26.57;;;6.00;1.00;;;;;;4934138;29;20452;-60
2021/01/02 02:04:39;;;;;;;43.03;24.57;;;5.90;1.00;;;;;;4934602;29;20503;-62
2021/01/02 02:07:14;;;;;;;35.87;23.27;;;5.90;1.00;;;;;;4933459;29;20866;-63
2021/01/02 02:09:42;;;;;;;44.07;25.07;;;5.90;1.00;;;;;;4932690;29;20462;-61
2021/01/02 02:12:23;;;;;;;34.00;21.80;;;5.90;1.00;;;;;;4934848;29;20485;-63
2021/01/02 02:14:57;;;;;;;40.90;24.43;;;5.80;1.00;;;;;;4933738;29;20447;-63
2021/01/02 02:17:34;;;;;;;40.97;24.17;;;5.80;1.00;;;;;;4934888;29;20439;-61
2021/01/02 02:20:07;;;;;;;45.50;24.40;;;5.80;1.00;;;;;;4932049;29;20542;-62
2021/01/02 02:22:36;;;;;;;43.67;24.83;;;5.80;1.00;;;;;;4932944;29;21000;-62
2021/01/02 02:25:04;;;;;;;38.70;22.43;;;5.70;1.00;;;;;;4933485;29;20535;-61
2021/01/02 02:27:33;;;;;;;42.57;24.90;;;5.70;1.00;;;;;;4934443;29;21034;-61
2021/01/02 02:30:41;;;;;;;35.70;25.10;;;5.70;1.00;;;;;;4933559;29;20439;-63
2021/01/02 02:33:08;;;;;;;37.60;24.60;;;5.70;1.00;;;;;;4894088;29;20445;-62
2021/01/02 02:35:36;;;;;;;40.60;25.60;;;5.70;1.00;;;;;;4893849;29;20545;-62
2021/01/02 02:38:02;;;;;;;37.97;24.20;;;5.80;1.00;;;;;;4912366;29;20454;-62
2021/01/02 02:40:28;;;;;;;36.00;23.70;;;5.80;1.00;;;;;;4934481;29;20506;-61
2021/01/02 02:42:57;;;;;;;43.43;25.90;;;5.80;1.00;;;;;;4930677;29;20490;-61
2021/01/02 02:45:24;;;;;;;39.10;26.70;;;5.80;1.00;;;;;;4934395;29;20458;-63
2021/01/02 02:47:54;;;;;;;42.40;24.47;;;5.90;1.00;;;;;;4933282;29;20483;-61
2021/01/02 02:50:25;;;;;;;43.20;26.57;;;7.50;1.00;;;;;;4933888;29;20949;-60
2021/01/02 02:53:02;;;;;;;40.60;25.17;;;5.90;1.00;;;;;;4933898;29;20436;-61
2021/01/02 02:55:28;;;;;;;36.37;22.83;;;5.90;1.00;;;;;;4933960;29;20801;-61
2021/01/02 02:57:53;;;;;;;37.20;23.60;;;5.80;1.00;;;;;;4932652;29;20451;-61
2021/01/02 03:00:19;;;;;;;42.93;26.43;;;5.80;1.00;;;;;;4933397;29;20441;-62
2021/01/02 03:02:48;;;;;;;38.10;25.40;;;5.80;1.00;;;;;;4934121;29;20189;-62
2021/01/02 03:05:17;;;;;;;41.97;25.80;;;5.80;1.00;;;;;;4931822;29;20459;-65
2021/01/02 03:07:48;;;;;;;42.87;25.37;;;5.80;1.00;;;;;;4932858;29;20440;-65
2021/01/02 03:10:16;;;;;;;41.50;26.20;;;5.60;1.00;;;;;;4932090;29;20444;-62
2021/01/02 03:12:44;;;;;;;39.10;25.33;;;5.70;1.00;;;;;;4933782;29;20448;-64
2021/01/02 03:15:11;;;;;;;38.20;24.40;;;5.70;1.00;;;;;;4932969;29;20444;-60
2021/01/02 03:17:38;;;;;;;37.60;23.40;;;5.60;1.00;;;;;;4933772;29;20961;-61
2021/01/02 03:20:04;;;;;;;43.83;26.47;;;5.70;1.00;;;;;;4931053;29;20502;-64
2021/01/02 03:22:31;;;;;;;43.73;26.00;;;5.60;1.00;;;;;;4932879;29;20450;-63
2021/01/02 03:24:57;;;;;;;41.23;25.97;;;5.60;1.00;;;;;;4933380;29;21032;-61
2021/01/02 03:27:22;;;;;;;38.27;25.57;;;5.60;1.00;;;;;;4932845;29;20554;-62
2021/01/02 03:29:48;;;;;;;43.07;27.30;;;5.60;1.00;;;;;;4933785;29;20318;-63
2021/01/02 03:32:14;;;;;;;45.50;27.07;;;5.60;1.00;;;;;;4933630;29;20255;-62
2021/01/02 03:34:41;;;;;;;37.30;26.27;;;5.70;1.00;;;;;;4930489;29;20452;-61
2021/01/02 03:37:07;;;;;;;38.30;25.73;;;5.70;1.00;;;;;;4933217;29;20180;-62
2021/01/02 03:39:33;;;;;;;37.73;25.50;;;5.70;1.00;;;;;;4932909;29;20456;-62
2021/01/02 03:41:59;;;;;;;36.93;23.77;;;5.70;1.00;;;;;;4933842;29;20534;-62
2021/01/02 03:44:25;;;;;;;41.07;25.00;;;;;;;;;;4933370;29;20271;-61
2021/01/02 03:46:50;;;;;;;42.47;25.13;;;5.50;1.00;;;;;;4933553;29;20602;-62
2021/01/02 03:49:16;;;;;;;41.80;26.77;;;5.50;1.00;;;;;;4932772;29;20455;-61
2021/01/02 03:51:42;;;;;;;41.70;25.03;;;5.50;1.00;;;;;;4930686;29;20207;-61
2021/01/02 03:54:07;;;;;;;44.83;26.97;;;5.50;1.00;;;;;;4933318;29;20546;-61
2021/01/02 03:56:33;;;;;;;44.50;26.83;;;5.50;1.00;;;;;;4933075;29;20199;-61
2021/01/02 03:58:58;;;;;;;42.13;25.77;;;5.40;1.00;;;;;;4933020;29;20194;-61
2021/01/02 04:01:24;;;;;;;45.07;26.70;;;5.40;1.00;;;;;;4933550;29;20203;-61
2021/01/02 04:03:50;;;;;;;47.20;28.73;;;5.30;1.00;;;;;;4932778;29;20557;-62
2021/01/02 04:06:24;;;;;;;40.23;25.07;;;5.30;1.00;;;;;;4931814;29;20470;-61
2021/01/02 04:08:49;;;;;;;40.03;24.80;;;5.30;1.00;;;;;;4931705;29;20892;-60
2021/01/02 04:11:15;;;;;;;46.10;26.73;;;5.40;1.00;;;;;;4932000;29;20961;-61
2021/01/02 04:13:41;;;;;;;42.30;26.30;;;5.30;1.00;;;;;;4933211;29;20665;-62
2021/01/02 04:16:06;;;;;;;42.63;27.00;;;5.20;1.00;;;;;;4933170;29;20212;-62
2021/01/02 04:18:33;;;;;;;40.03;26.53;;;5.30;1.00;;;;;;4933153;29;20195;-62
2021/01/02 04:20:58;;;;;;;53.83;27.50;;;5.30;1.00;;;;;;4932806;29;20180;-61
2021/01/02 04:23:24;;;;;;;40.77;25.43;;;5.20;1.00;;;;;;4929426;29;20871;-62
2021/01/02 04:25:50;;;;;;;39.30;24.20;;;5.20;1.00;;;;;;4932197;29;20200;-62
2021/01/02 04:28:15;;;;;;;43.63;27.27;;;5.10;1.00;;;;;;4932570;29;20195;-60
2021/01/02 04:30:41;;;;;;;44.43;26.53;;;5.10;1.00;;;;;;4947913;28;20294;-61
2021/01/02 04:33:06;;;;;;;44.70;25.97;;;5.10;1.00;;;;;;4935560;29;20591;-61
2021/01/02 04:35:32;;;;;;;42.57;25.27;;;5.10;1.00;;;;;;4936272;29;20195;-62
2021/01/02 04:38:00;;;;;;;41.37;25.30;;;5.10;1.00;;;;;;4936106;29;20194;-61
2021/01/02 04:40:26;;;;;;;42.37;25.77;;;5.10;1.00;;;;;;4936873;29;20996;-61
2021/01/02 04:42:52;;;;;;;52.20;29.60;;;5.30;1.00;;;;;;4936678;29;20440;-61
2021/01/02 04:45:20;;;;;;;46.00;25.93;;;5.20;1.00;;;;;;4934234;29;20247;-61
2021/01/02 04:47:46;;;;;;;41.57;26.27;;;5.30;1.00;;;;;;4935937;29;20271;-61
2021/01/02 04:50:12;;;;;;;43.70;25.80;;;5.30;1.00;;;;;;4935821;29;20482;-61
2021/01/02 04:52:38;;;;;;;45.37;26.73;;;5.30;1.00;;;;;;4936636;29;20526;-60
2021/01/02 04:55:06;;;;;;;41.33;26.43;;;5.30;1.00;;;;;;4935806;29;20519;-62
2021/01/02 04:57:37;;;;;;;42.90;26.80;;;5.10;1.00;;;;;;4934211;29;20436;-62
2021/01/02 05:00:07;;;;;;;39.70;25.13;;;5.20;1.00;;;;;;4936295;29;20539;-62
2021/01/02 05:02:35;;;;;;;45.07;26.67;;;5.20;1.00;;;;;;4936244;29;20482;-63
2021/01/02 05:05:02;;;;;;;45.03;27.30;;;5.20;1.00;;;;;;4933699;29;20542;-60
2021/01/02 05:07:30;;;;;;;45.00;27.20;;;5.00;1.00;;;;;;4936631;29;20436;-61
2021/01/02 05:09:56;;;;;;;41.20;24.77;;;5.00;1.00;;;;;;4933505;29;20845;-63
2021/01/02 05:12:32;;;;;;;39.77;25.00;;;5.10;1.00;;;;;;4934713;29;20482;-63
2021/01/02 05:14:59;;;;;;;48.47;26.03;;;5.00;1.00;;;;;;4935471;29;20544;-63
2021/01/02 05:17:26;;;;;;;46.07;27.10;;;4.90;1.00;;;;;;4936467;29;20849;-61
2021/01/02 05:20:09;;;;;;;43.87;25.30;;;5.00;1.00;;;;;;4933733;29;20543;-61
2021/01/02 05:22:35;;;;;;;38.37;23.30;;;4.90;1.00;;;;;;4934659;29;20538;-62
2021/01/02 05:25:15;;;;;;;41.70;24.80;;;4.90;1.00;;;;;;4937069;29;20443;-62
2021/01/02 05:27:43;;;;;;;43.57;24.60;;;4.90;1.00;;;;;;4935210;29;20961;-61
2021/01/02 05:30:47;;;;;;;42.10;25.07;;;5.10;1.00;;;;;;4935780;29;20570;-63
2021/01/02 05:33:13;;;;;;;42.10;25.67;;;5.10;1.00;;;;;;4929871;29;20443;-63
2021/01/02 05:35:43;;;;;;;44.30;25.20;;;5.10;1.00;;;;;;4934405;29;20448;-62
2021/01/02 05:38:10;;;;;;;41.03;24.27;;;5.00;1.00;;;;;;4935420;29;20913;-61
2021/01/02 05:40:38;;;;;;;40.40;23.77;;;5.00;1.00;;;;;;4935573;29;20975;-63
2021/01/02 05:43:04;;;;;;;40.63;24.37;;;5.10;1.00;;;;;;4935388;29;20456;-61
2021/01/02 05:45:30;;;;;;;42.30;23.47;;;5.30;1.00;;;;;;4935030;29;20794;-61
2021/01/02 05:47:57;;;;;;;37.67;22.70;;;5.20;1.00;;;;;;4935237;29;20952;-60
2021/01/02 05:50:24;;;;;;;42.13;24.73;;;5.20;1.00;;;;;;4935648;29;20475;-61
2021/01/02 05:52:51;;;;;;;45.00;25.27;;;5.10;1.00;;;;;;4935411;29;20472;-61
2021/01/02 05:55:29;;;;;;;39.20;23.97;;;5.10;1.00;;;;;;4934790;29;20809;-60
2021/01/02 05:58:13;;;;;;;44.03;23.93;;;5.20;1.00;;;;;;4935255;29;20455;-61
2021/01/02 06:00:42;;;;;;;37.13;22.47;;;5.10;1.00;;;;;;4933734;29;20465;-62
2021/01/02 06:03:24;;;;;;;41.60;25.23;;;5.10;1.00;;;;;;4935181;29;20467;-61
2021/01/02 06:05:59;;;;;;;37.37;22.47;;;5.20;1.00;;;;;;4932868;29;20478;-62
2021/01/02 06:08:29;;;;;;;40.80;26.57;;;5.10;1.00;;;;;;4932010;29;20455;-61
2021/01/02 06:11:00;;;;;;;41.37;24.77;;;5.10;1.00;;;;;;4934428;29;20494;-61
2021/01/02 06:13:28;;;;;;;39.80;23.07;;;5.10;1.00;;;;;;4933011;29;20447;-61
2021/01/02 06:15:57;;;;;;;34.60;21.53;;;5.10;1.00;;;;;;4932704;29;20937;-62
2021/01/02 06:18:23;;;;;;;42.87;23.97;;;5.10;1.00;;;;;;4933773;29;20442;-61
2021/01/02 06:20:48;;;;;;;40.87;21.67;;;5.10;1.00;;;;;;4935171;29;20455;-63
2021/01/02 06:23:18;;;;;;;34.60;21.00;;;5.20;1.00;;;;;;4933646;29;20886;-62
2021/01/02 06:25:45;;;;;;;35.90;22.00;;;5.20;1.00;;;;;;4933046;29;20275;-61
2021/01/02 06:28:14;;;;;;;33.07;20.37;;;5.20;1.00;;;;;;4934856;29;20534;-62
2021/01/02 06:30:40;;;;;;;33.53;20.97;;;5.20;1.00;;;;;;4933631;29;20579;-62
2021/01/02 06:33:06;;;;;;;37.20;20.70;;;5.10;1.00;;;;;;4932931;29;20547;-62
2021/01/02 06:35:38;;;;;;;37.63;21.83;;;5.00;1.00;;;;;;4933932;29;20620;-61
2021/01/02 06:38:09;;;;;;;39.07;22.00;;;5.10;1.00;;;;;;4934550;29;20660;-62
2021/01/02 06:40:37;;;;;;;38.13;23.17;;;5.00;1.00;;;;;;4920355;28;20504;-63
2021/01/02 06:43:16;;;;;;;33.13;20.00;;;5.00;1.00;;;;;;4915640;29;20484;-62
2021/01/02 06:45:41;;;;;;;37.13;22.17;;;5.00;1.00;;;;;;4918491;29;20455;-62
2021/01/02 06:48:13;;;;;;;32.97;22.20;;;4.90;1.00;;;;;;4930956;29;20787;-63
2021/01/02 06:50:42;;;;;;;43.47;23.13;;;5.00;1.00;;;;;;4927729;29;20215;-62
2021/01/02 06:53:35;;;;;;;38.37;23.37;;;5.00;1.00;;;;;;4932093;29;21152;-62
2021/01/02 06:56:10;;;;;;;39.27;21.07;;;5.00;1.00;;;;;;4931888;29;20451;-62
2021/01/02 06:58:51;;;;;;;36.93;21.80;;;5.10;1.00;;;;;;4932676;29;20443;-61
2021/01/02 07:01:16;;;;;;;33.53;21.20;;;5.10;1.00;;;;;;4928411;29;20463;-62
2021/01/02 07:03:48;;;;;;;38.13;22.70;;;5.00;1.00;;;;;;4932497;29;20447;-61
2021/01/02 07:09:02;;;;;;;37.33;20.87;;;5.00;1.00;;;;;;4932104;29;20961;-62
2021/01/02 07:11:43;;;;;;;36.20;21.77;;;5.10;1.00;;;;;;4933339;29;20969;-62
2021/01/02 07:14:12;;;;;;;36.10;21.57;;;5.10;1.00;;;;;;4933639;29;21045;-60
2021/01/02 07:16:51;;;;;;;40.30;21.13;;;5.10;1.00;;;;;;4932692;29;20448;-62
2021/01/02 07:19:31;;;;;;;40.50;21.07;;;5.10;1.00;;;;;;4934415;29;20444;-61
2021/01/02 07:21:59;;;;;;;39.43;23.20;;;4.90;1.00;;;;;;4933553;29;20451;-63
2021/01/02 07:24:40;;;;;;;32.10;20.77;;;5.00;1.00;;;;;;4930810;29;20475;-61
2021/01/02 07:27:11;;;;;;;38.17;21.17;;;5.00;1.00;;;;;;4933428;29;20771;-60
2021/01/02 07:29:45;;;;;;;36.70;20.17;;;5.00;1.00;;;;;;4932159;29;20475;-63
2021/01/02 07:32:21;;;;;;;32.33;19.73;;;5.00;1.00;;;;;;4932657;29;20483;-61
2021/01/02 07:34:48;;;;;;;34.87;21.20;;;5.00;1.00;;;;;;4932465;29;20451;-59
2021/01/02 07:37:16;;;;;;;33.17;20.77;;;5.00;1.00;;;;;;4933129;29;20937;-62
2021/01/02 07:39:53;;;;;;;33.50;19.50;;;5.00;1.00;;;;;;4931339;29;20791;-62
2021/01/02 07:42:22;;;;;;;36.17;21.40;;;5.00;1.00;;;;;;4933108;29;20477;-63
2021/01/02 07:44:54;;;;;;;33.80;20.03;;;5.10;1.00;;;;;;4933357;29;20507;-61
2021/01/02 07:47:20;;;;;;;35.77;19.60;;;5.00;1.00;;;;;;4931355;29;20817;-64
2021/01/02 07:49:46;;;;;;;33.80;19.83;;;4.90;1.00;;;;;;4932836;29;20563;-61
2021/01/02 07:52:11;;;;;;;35.63;19.50;;;4.90;1.00;;;;;;4933184;29;20318;-62
2021/01/02 07:54:38;;;;;;;35.47;23.00;;;4.90;1.00;;;;;;4933035;29;20229;-62
2021/01/02 07:57:06;;;;;;;36.90;22.73;;;5.10;1.00;;;;;;4932759;29;20642;-63
2021/01/02 07:59:39;;;;;;;29.60;20.00;;;5.10;1.00;;;;;;4932180;29;20809;-62
2021/01/02 08:02:09;;;;;;;32.77;21.27;;;5.00;1.00;;;;;;4930774;29;20522;-62
2021/01/02 08:04:36;;;;;;;35.47;20.13;;;5.10;1.00;;;;;;4932237;29;20511;-61
2021/01/02 08:07:06;;;;;;;35.93;20.67;;;5.10;1.00;;;;;;4931640;29;20518;-62
2021/01/02 08:09:34;;;;;;;35.93;21.53;;;5.20;1.00;;;;;;4931546;29;20448;-62
2021/01/02 08:12:07;;;;;;;29.47;19.43;;;5.30;1.00;;;;;;4932285;29;20829;-61
2021/01/02 08:14:34;;;;;;;31.00;18.93;;;5.30;1.00;;;;;;4932778;29;20862;-62
2021/01/02 08:17:09;;;;;;;36.43;20.67;;;5.30;1.00;;;;;;4931771;29;20538;-64
2021/01/02 08:19:47;;;;;;;34.60;20.30;;;5.30;1.00;;;;;;4918767;29;20511;-63
2021/01/02 08:22:26;;;;;;;34.53;19.07;;;5.40;1.00;;;;;;4926167;29;20587;-64
2021/01/02 08:25:09;;;;;;;32.37;20.17;;;5.40;1.00;;;;;;4931149;29;20546;-62
2021/01/02 08:27:35;;;;;;;34.87;21.40;;;5.40;1.00;;;;;;4931387;29;20537;-63
2021/01/02 08:30:03;;;;;;;32.60;20.97;;;5.50;1.00;;;;;;4932762;29;20961;-64
2021/01/02 08:32:32;;;;;;;37.00;20.30;;;5.50;1.00;;;;;;4932179;29;20958;-62
2021/01/02 08:34:59;;;;;;;36.37;20.30;;;5.60;1.00;;;;;;4932821;29;20458;-62
2021/01/02 08:37:24;;;;;;;38.17;20.67;;;5.70;1.00;;;;;;4932555;29;20455;-62
2021/01/02 08:40:09;;;;;;;32.43;19.97;;;5.80;1.00;;;;;;4932668;29;20449;-62
2021/01/02 08:42:40;;;;;;;35.63;19.47;;;5.70;1.00;;;;;;4931099;29;20188;-66
2021/01/02 08:45:08;;;;;;;33.17;19.77;;;5.70;1.00;;;;;;4932815;29;20471;-67
2021/01/02 08:47:38;;;;;;;32.60;18.53;;;5.70;1.00;;;;;;4932264;29;20452;-66
2021/01/02 08:50:13;;;;;;;37.10;21.07;;;5.70;1.00;;;;;;4932662;29;20809;-68
2021/01/02 08:52:39;;;;;;;37.90;20.57;;;5.80;1.00;;;;;;4931510;29;20558;-69
2021/01/02 08:55:16;;;;;;;35.43;19.80;;;5.80;1.00;;;;;;4932511;29;20448;-70
2021/01/02 08:57:48;;;;;;;32.70;18.30;;;5.70;1.00;;;;;;4932160;29;20774;-66
2021/01/02 09:00:29;;;;;;;36.30;20.80;;;5.90;1.00;;;;;;4932148;29;20933;-68
2021/01/02 09:02:55;;;;;;;33.67;21.00;;;6.00;1.00;;;;;;4932434;29;21003;-66
2021/01/02 09:05:30;;;;;;;30.90;19.00;;;6.00;1.00;;;;;;4932027;29;20534;-66
2021/01/02 09:08:01;;;;;;;35.63;20.77;;;5.90;1.00;;;;;;4932627;29;20180;-68
2021/01/02 09:10:27;;;;;;;31.97;18.77;;;5.90;1.00;;;;;;4932118;29;20447;-67
2021/01/02 09:12:59;;;;;;;30.43;19.90;;;5.80;1.00;;;;;;4931444;29;20517;-68
2021/01/02 09:15:51;;;;;;;36.10;20.50;;;5.90;1.00;;;;;;4932572;29;20184;-67
2021/01/02 09:18:17;;;;;;;36.90;20.30;;;5.90;1.00;;;;;;4933951;29;20550;-66
2021/01/02 09:20:43;;;;;;;32.90;20.60;;;5.80;1.00;;;;;;4936153;29;20531;-65
2021/01/02 09:23:09;;;;;;;28.23;17.33;;;5.80;1.00;;;;;;4935952;29;20207;-66
2021/01/02 09:25:36;;;;;;;35.57;20.73;;;5.60;1.00;;;;;;4935719;29;20436;-66
2021/01/02 09:28:17;;;;;;;35.73;22.57;;;5.70;1.00;;;;;;4933665;29;20542;-66
2021/01/02 09:30:45;;;;;;;32.83;19.40;;;5.70;1.00;;;;;;4934989;29;20554;-65
2021/01/02 09:33:11;;;;;;;34.80;20.97;;;5.80;1.00;;;;;;4933367;29;21012;-66
2021/01/02 09:35:38;;;;;;;35.00;20.63;;;5.80;1.00;;;;;;4935558;29;20444;-68
2021/01/02 09:38:04;;;;;;;33.07;21.00;;;5.90;1.00;;;;;;4935170;29;20539;-64
2021/01/02 09:40:31;;;;;;;34.13;20.30;;;5.90;1.00;;;;;;4935909;29;20441;-66
2021/01/02 09:42:57;;;;;;;35.30;21.00;;;5.80;1.00;;;;;;4935218;29;20440;-66
2021/01/02 09:45:22;;;;;;;33.87;19.77;;;5.80;1.00;;;;;;4935475;29;20805;-65
2021/01/02 09:47:48;;;;;;;34.17;18.83;;;5.70;1.00;;;;;;4933906;29;21442;-69
2021/01/02 09:50:14;;;;;;;36.43;21.57;;;5.60;1.00;;;;;;4934259;29;20187;-68
2021/01/02 09:52:40;;;;;;;36.13;22.23;;;;;;;;;;4934544;29;20208;-70
2021/01/02 09:55:06;;;;;;;30.60;19.50;;;5.70;1.00;;;;;;4934434;29;20188;-66
2021/01/02 09:57:31;;;;;;;33.33;20.30;;;5.70;1.00;;;;;;4935543;29;20921;-68
2021/01/02 09:59:57;;;;;;;36.23;20.40;;;5.70;1.00;;;;;;4935035;29;20444;-67
2021/01/02 10:02:23;;;;;;;35.07;20.37;;;5.60;1.00;;;;;;4935338;29;20199;-67
2021/01/02 10:04:49;;;;;;;31.83;19.83;;;5.60;1.00;;;;;;4935259;29;20328;-68
2021/01/02 10:07:17;;;;;;;35.87;20.17;;;5.60;1.00;;;;;;4935364;29;20243;-68
2021/01/02 10:09:47;;;;;;;37.33;22.20;;;5.90;1.00;;;;;;4934643;29;20450;-67
2021/01/02 10:12:15;;;;;;;32.27;19.67;;;6.10;1.00;;;;;;4934193;29;20471;-67
2021/01/02 10:14:41;;;;;;;35.00;21.47;;;6.20;1.00;;;;;;4934576;29;20503;-67
2021/01/02 10:17:08;;;;;;;35.90;21.03;;;6.20;1.00;;;;;;4935037;29;20432;-61
2021/01/02 10:19:35;;;;;;;34.07;21.03;;;6.20;1.00;;;;;;4933515;29;20447;-66
2021/01/02 10:22:03;;;;;;;36.53;21.10;;;6.20;1.00;;;;;;4934523;29;20447;-64
2021/01/02 10:24:29;;;;;;;35.13;19.87;;;6.30;1.00;;;;;;4934607;29;20452;-64
2021/01/02 10:26:56;;;;;;;34.03;21.33;;;6.30;1.00;;;;;;4932765;29;20845;-64
2021/01/02 10:29:22;;;;;;;35.67;20.33;;;;;;;;;;4933524;29;20450;-67
2021/01/02 10:31:48;;;;;;;32.20;20.33;;;6.20;1.00;;;;;;4934312;29;20468;-67
2021/01/02 10:34:15;;;;;;;31.63;19.60;;;6.20;1.00;;;;;;4949563;28;20528;-66
2021/01/02 10:36:43;;;;;;;42.40;22.30;;;6.20;1.00;;;;;;4934947;29;20666;-65
2021/01/02 10:39:09;;;;;;;34.67;21.13;;;6.10;1.00;;;;;;4932052;29;20443;-66
2021/01/02 10:41:35;;;;;;;33.60;20.77;;;6.10;1.00;;;;;;4934085;29;20805;-68
2021/01/02 10:44:00;;;;;;;34.37;20.83;;;6.00;1.00;;;;;;4919368;29;20196;-66
2021/01/02 10:46:26;;;;;;;32.10;21.63;;;5.90;1.00;;;;;;4934476;29;20634;-71
2021/01/02 10:48:51;;;;;;;33.80;20.93;;;6.00;1.00;;;;;;4934581;29;20272;-65
2021/01/02 10:51:20;;;;;;;30.27;20.60;;;6.00;1.00;;;;;;4921269;29;20232;-65
2021/01/02 10:53:46;;;;;;;38.30;22.50;;;6.10;1.00;;;;;;4934237;29;20267;-65
2021/01/02 10:56:16;;;;;;;54.17;29.57;;;6.10;1.00;;;;;;4934047;29;20551;-67
2021/01/02 10:58:43;;;;;;;36.33;21.70;;;6.10;1.00;;;;;;4928946;29;20193;-66
2021/01/02 11:01:08;;;;;;;35.97;21.87;;;6.10;1.00;;;;;;4915253;29;20445;-65
2021/01/02 11:03:35;;;;;;;34.30;22.07;;;6.20;1.00;;;;;;4915156;29;20532;-66
2021/01/02 11:06:09;;;;;;;34.00;21.20;;;6.40;1.00;;;;;;4925684;29;20823;-65
2021/01/02 11:08:35;;;;;;;35.03;22.90;;;6.40;1.00;;;;;;4919859;29;20993;-65
2021/01/02 11:11:02;;;;;;;37.83;21.90;;;6.50;1.00;;;;;;4932527;29;20832;-65
2021/01/02 11:13:28;;;;;;;33.47;21.90;;;6.50;1.00;;;;;;4933918;29;20813;-64
2021/01/02 11:15:54;;;;;;;31.80;21.30;;;6.70;1.00;;;;;;4934056;29;20436;-66
2021/01/02 11:18:20;;;;;;;34.33;21.90;;;6.90;1.00;;;;;;4933815;29;20674;-65
2021/01/02 11:20:46;;;;;;;38.03;23.80;;;7.10;1.00;;;;;;4933855;29;20189;-66
2021/01/02 11:23:15;;;;;;;44.33;23.17;;;7.30;1.00;;;;;;4934016;29;20452;-65
2021/01/02 11:25:41;;;;;;;35.80;23.87;;;7.30;1.00;;;;;;4933728;29;20479;-64
2021/01/02 11:28:07;;;;;;;33.13;20.87;;;7.40;1.00;;;;;;4932689;29;20531;-67
2021/01/02 11:30:32;;;;;;;39.57;22.87;;;7.30;1.00;;;;;;4933001;29;20586;-66
2021/01/02 11:32:58;;;;;;;32.03;20.60;;;7.40;1.00;;;;;;4932433;29;20200;-66
2021/01/02 11:35:23;;;;;;;38.13;22.13;;;7.20;1.00;;;;;;4947668;29;20188;-64
2021/01/02 11:37:49;;;;;;;33.63;20.90;;;7.40;1.00;;;;;;4933570;29;20215;-67
2021/01/02 11:40:16;;;;;;;41.87;22.93;;;7.50;1.00;;;;;;4933281;29;20184;-66
2021/01/02 11:42:42;;;;;;;42.00;23.67;;;7.60;1.00;;;;;;4931568;29;20286;-65
2021/01/02 11:45:12;;;;;;;33.17;20.07;;;7.60;1.00;;;;;;4932783;29;20555;-66
2021/01/02 11:47:37;;;;;;;38.13;22.30;;;7.50;1.00;;;;;;4933113;29;20270;-64
2021/01/02 11:50:04;;;;;;;33.73;22.40;;;7.60;1.00;;;;;;4932771;29;20882;-64
2021/01/02 11:52:29;;;;;;;37.33;22.13;;;7.60;1.00;;;;;;4933092;29;20216;-65
2021/01/02 11:54:55;;;;;;;32.83;20.30;;;7.50;1.00;;;;;;4929474;29;20885;-64
2021/01/02 11:57:20;;;;;;;35.30;20.40;;;7.20;1.00;;;;;;4914449;29;20245;-65
2021/01/02 11:59:46;;;;;;;35.70;21.80;;;7.30;1.00;;;;;;4914108;29;20631;-66
2021/01/02 12:02:11;;;;;;;28.90;19.03;;;7.20;1.00;;;;;;4914378;29;20193;-66
2021/01/02 12:04:37;;;;;;;33.50;19.73;;;7.00;1.00;;;;;;4929799;29;20227;-64
2021/01/02 12:07:03;;;;;;;35.33;21.07;;;7.00;1.00;;;;;;4931485;29;20191;-64
2021/01/02 12:09:30;;;;;;;32.80;20.40;;;7.00;1.00;;;;;;4933048;29;20192;-64
2021/01/02 12:11:56;;;;;;;33.97;21.60;;;6.90;1.00;;;;;;4932605;29;20491;-67
2021/01/02 12:14:26;;;;;;;27.53;18.17;;;6.90;1.00;;;;;;4933195;29;20468;-65
2021/01/02 12:16:54;;;;;;;34.07;20.80;;;7.00;1.00;;;;;;4963337;28;20464;-65
2021/01/02 12:19:23;;;;;;;32.30;20.17;;;6.90;1.00;;;;;;4963865;28;20798;-65
2021/01/02 12:21:52;;;;;;;30.40;20.47;;;6.90;1.00;;;;;;4925793;29;20479;-65
2021/01/02 12:24:18;;;;;;;37.80;23.20;;;6.80;1.00;;;;;;4932551;29;20443;-66
2021/01/02 12:26:52;;;;;;;38.00;22.57;;;6.80;1.00;;;;;;4932966;29;20898;-66
2021/01/02 12:29:19;;;;;;;33.90;20.30;;;6.80;1.00;;;;;;4931743;29;20183;-69
2021/01/02 12:31:50;;;;;;;36.00;19.03;;;6.90;1.00;;;;;;4931002;29;20837;-68
2021/01/02 12:34:18;;;;;;;30.00;18.70;;;6.90;1.00;;;;;;4931487;29;20496;-66
2021/01/02 12:36:44;;;;;;;31.73;20.03;;;6.90;1.00;;;;;;4932392;29;20464;-67
2021/01/02 12:39:13;;;;;;;30.90;19.60;;;7.00;1.00;;;;;;4925314;29;20471;-67
2021/01/02 12:41:39;;;;;;;29.00;17.93;;;6.90;1.00;;;;;;4932088;29;21145;-66
2021/01/02 12:44:05;;;;;;;30.73;18.87;;;6.90;1.00;;;;;;4932382;29;20522;-66
2021/01/02 12:46:51;;;;;;;32.97;20.17;;;6.90;1.00;;;;;;4932313;29;20683;-64
2021/01/02 12:49:21;;;;;;;36.40;20.50;;;7.00;1.00;;;;;;4932383;29;20440;-64
2021/01/02 12:51:52;;;;;;;30.80;18.20;;;7.00;1.00;;;;;;4934179;29;20938;-65
2021/01/02 12:54:17;;;;;;;31.73;20.93;;;7.00;1.00;;;;;;4936608;29;20428;-65
2021/01/02 12:56:47;;;;;;;30.90;19.50;;;7.00;1.00;;;;;;4936928;29;20957;-65
2021/01/02 12:59:15;;;;;;;28.37;19.67;;;7.00;1.00;;;;;;4936528;29;20514;-65
2021/01/02 13:01:41;;;;;;;31.90;20.53;;;7.10;1.00;;;;;;4936435;29;20436;-65
2021/01/02 13:04:08;;;;;;;33.27;18.50;;;7.00;1.00;;;;;;4936228;29;20442;-66
2021/01/02 13:06:34;;;;;;;30.40;18.40;;;7.00;1.00;;;;;;4936425;29;20435;-65